createdAt,value
2023-04-22T00:00:47.379Z,19.53
2023-04-22T00:03:49.626Z,19.03
2023-04-22T00:06:51.772Z,18.80
2023-04-22T00:09:54.197Z,16.52
2023-04-22T00:12:56.732Z,17.57
2023-04-22T00:15:59.207Z,19.05
2023-04-22T00:19:01.147Z,18.67
2023-04-22T00:22:03.625Z,15.55
2023-04-22T00:25:06.447Z,15.70
2023-04-22T00:28:08.632Z,15.07
2023-04-22T00:31:10.813Z,16.10
2023-04-22T00:34:13.028Z,16.35
2023-04-22T00:37:15.532Z,16.60
2023-04-22T00:40:17.520Z,19.08
2023-04-22T00:43:19.466Z,14.05
2023-04-22T00:46:22.322Z,14.20
2023-04-22T00:49:24.849Z,15.07
2023-04-22T00:52:26.819Z,18.10
2023-04-22T00:55:28.875Z,14.90
2023-04-22T00:58:31.102Z,18.50
2023-04-22T01:01:33.151Z,14.40
2023-04-22T01:04:35.728Z,15.95
2023-04-22T01:07:37.746Z,15.35
2023-04-22T01:10:40.304Z,18.23
2023-04-22T01:13:42.328Z,16.53
2023-04-22T01:16:44.544Z,16.70
2023-04-22T01:19:47.617Z,15.85
2023-04-22T01:22:49.869Z,17.55
2023-04-22T01:25:52.289Z,18.38
2023-04-22T01:28:54.714Z,17.17
2023-04-22T01:31:57.141Z,15.25
2023-04-22T01:34:59.758Z,16.30
2023-04-22T01:38:01.724Z,18.45
2023-04-22T01:41:03.729Z,19.83
2023-04-22T01:44:06.311Z,15.88
2023-04-22T01:47:09.861Z,13.75
2023-04-22T01:50:11.962Z,18.73
2023-04-22T01:53:14.181Z,16.25
2023-04-22T01:56:16.262Z,16.47
2023-04-22T01:59:19.248Z,18.33
2023-04-22T02:02:21.297Z,15.95
2023-04-22T02:05:23.383Z,13.98
2023-04-22T02:08:25.451Z,14.48
2023-04-22T02:11:27.499Z,13.95
2023-04-22T02:14:29.683Z,14.88
2023-04-22T02:17:31.924Z,15.53
2023-04-22T02:20:33.920Z,16.25
2023-04-22T02:23:36.699Z,13.20
2023-04-22T02:26:39.056Z,14.77
2023-04-22T02:29:42.139Z,13.35
2023-04-22T02:32:44.596Z,13.57
2023-04-22T02:35:46.854Z,17.83
2023-04-22T02:38:53.648Z,14.70
2023-04-22T02:41:56.027Z,15.27
2023-04-22T02:44:57.980Z,14.48
2023-04-22T02:48:00.060Z,17.97
2023-04-22T02:51:02.890Z,17.90
2023-04-22T02:54:05.290Z,15.93
2023-04-22T02:57:07.743Z,16.55
2023-04-22T03:00:10.900Z,14.65
2023-04-22T03:03:13.406Z,16.20
2023-04-22T03:06:15.700Z,14.38
2023-04-22T03:09:18.114Z,14.00
2023-04-22T03:12:20.528Z,15.45
2023-04-22T03:15:22.821Z,15.40
2023-04-22T03:18:25.214Z,15.13
2023-04-22T03:21:28.499Z,16.58
2023-04-22T03:24:30.891Z,17.58
2023-04-22T03:27:37.520Z,17.70
2023-04-22T03:30:39.633Z,17.23
2023-04-22T03:33:41.971Z,15.85
2023-04-22T03:36:53.482Z,17.33
2023-04-22T03:39:55.494Z,15.37
2023-04-22T03:42:57.800Z,19.33
2023-04-22T03:46:00.948Z,17.23
2023-04-22T03:49:05.352Z,15.80
2023-04-22T03:52:10.595Z,16.00
2023-04-22T03:55:17.338Z,16.25
2023-04-22T03:58:20.007Z,16.70
2023-04-22T04:01:23.744Z,19.92
2023-04-22T04:04:29.722Z,16.42
2023-04-22T04:07:35.292Z,14.45
2023-04-22T04:10:37.651Z,16.07
2023-04-22T04:13:40.686Z,17.02
2023-04-22T04:16:52.005Z,15.07
2023-04-22T04:20:07.192Z,15.10
2023-04-22T04:23:10.968Z,15.85
2023-04-22T04:26:15.102Z,17.40
2023-04-22T04:29:20.710Z,16.33
2023-04-22T04:32:36.817Z,14.75
2023-04-22T04:35:43.536Z,16.45
2023-04-22T04:38:48.920Z,15.13
2023-04-22T04:41:55.197Z,16.67
2023-04-22T04:44:58.505Z,15.43
2023-04-22T04:48:02.797Z,17.40
2023-04-22T04:51:11.729Z,14.70
2023-04-22T04:54:23.717Z,16.80
2023-04-22T04:57:26.318Z,18.33
2023-04-22T05:00:28.919Z,16.70
2023-04-22T05:03:31.605Z,13.90
2023-04-22T05:06:34.672Z,13.80
2023-04-22T05:09:39.706Z,15.40
2023-04-22T05:12:44.233Z,12.97
2023-04-22T05:15:57.980Z,12.38
2023-04-22T05:19:01.260Z,13.30
2023-04-22T05:22:03.330Z,13.33
2023-04-22T05:25:06.149Z,13.35
2023-04-22T05:28:08.324Z,13.88
2023-04-22T05:31:18.644Z,10.63
2023-04-22T05:34:22.028Z,13.03
2023-04-22T05:37:24.526Z,12.52
2023-04-22T05:40:27.157Z,14.05
2023-04-22T05:43:29.411Z,11.93
2023-04-22T05:46:39.332Z,9.47
2023-04-22T05:49:41.982Z,11.13
2023-04-22T05:53:03.523Z,12.20
2023-04-22T05:56:05.940Z,12.52
2023-04-22T05:59:08.735Z,16.83
2023-04-22T06:02:10.993Z,18.35
2023-04-22T06:05:13.460Z,18.33
2023-04-22T06:08:16.216Z,17.75
2023-04-22T06:11:18.159Z,18.20
2023-04-22T06:14:20.078Z,13.88
2023-04-22T06:17:22.585Z,14.82
2023-04-22T06:20:26.073Z,14.65
2023-04-22T06:23:28.026Z,13.33
2023-04-22T06:26:30.755Z,13.33
2023-04-22T06:29:33.420Z,14.88
2023-04-22T06:32:35.486Z,13.00
2023-04-22T06:35:37.746Z,8.70
2023-04-22T06:38:40.597Z,7.93
2023-04-22T06:42:01.816Z,9.20
2023-04-22T06:45:22.765Z,9.82
2023-04-22T06:48:44.993Z,8.40
2023-04-22T06:52:06.339Z,8.98
2023-04-22T06:55:09.942Z,7.87
2023-04-22T06:58:12.342Z,7.80
2023-04-22T07:01:14.343Z,7.75
2023-04-22T07:04:17.072Z,6.57
2023-04-22T07:07:19.464Z,8.38
2023-04-22T07:10:21.812Z,12.37
2023-04-22T07:13:43.697Z,10.53
2023-04-22T07:16:46.554Z,6.70
2023-04-22T07:19:49.033Z,8.18
2023-04-22T07:22:51.486Z,7.50
2023-04-22T07:25:53.822Z,8.77
2023-04-22T07:28:55.790Z,6.57
2023-04-22T07:31:57.895Z,7.22
2023-04-22T07:35:00.177Z,8.05
2023-04-22T07:38:02.282Z,10.43
2023-04-22T07:41:04.409Z,8.03
2023-04-22T07:44:06.805Z,6.50
2023-04-22T07:47:08.855Z,9.43
2023-04-22T07:50:11.461Z,7.18
2023-04-22T07:53:15.496Z,8.52
2023-04-22T07:56:17.482Z,7.70
2023-04-22T07:59:19.865Z,8.07
2023-04-22T08:02:23.129Z,6.88
2023-04-22T08:05:25.563Z,5.63
2023-04-22T08:08:27.598Z,6.80
2023-04-22T08:11:29.992Z,6.20
2023-04-22T08:14:32.320Z,7.90
2023-04-22T08:17:34.741Z,7.93
2023-04-22T08:20:37.085Z,6.15
2023-04-22T08:23:42.524Z,8.57
2023-04-22T08:26:44.485Z,7.97
2023-04-22T08:29:46.950Z,8.57
2023-04-22T08:32:49.408Z,6.32
2023-04-22T08:35:51.533Z,8.10
2023-04-22T08:38:54.638Z,6.57
2023-04-22T08:41:58.204Z,10.87
2023-04-22T08:45:00.744Z,8.60
2023-04-22T08:48:02.849Z,10.35
2023-04-22T08:51:05.031Z,7.85
2023-04-22T08:54:07.088Z,6.45
2023-04-22T08:57:11.032Z,7.37
2023-04-22T09:00:14.215Z,7.30
2023-04-22T09:03:16.823Z,11.00
2023-04-22T09:06:18.939Z,6.97
2023-04-22T09:09:20.968Z,7.30
2023-04-22T09:12:23.341Z,7.93
2023-04-22T09:15:26.132Z,9.87
2023-04-22T09:18:28.167Z,6.80
2023-04-22T09:21:30.177Z,7.68
2023-04-22T09:24:32.429Z,6.75
2023-04-22T09:27:35.455Z,7.10
2023-04-22T09:30:37.949Z,9.37
2023-04-22T09:33:40.232Z,6.40
2023-04-22T09:36:43.085Z,7.75
2023-04-22T09:39:45.046Z,6.55
2023-04-22T09:42:54.527Z,5.97
2023-04-22T09:45:56.507Z,6.87
2023-04-22T09:48:59.126Z,6.85
2023-04-22T09:52:01.284Z,7.88
2023-04-22T09:55:03.375Z,6.95
2023-04-22T09:58:12.279Z,7.20
2023-04-22T10:01:14.392Z,8.03
2023-04-22T10:04:18.180Z,6.63
2023-04-22T10:07:20.236Z,7.00
2023-04-22T10:10:22.443Z,7.97
2023-04-22T10:13:24.533Z,7.20
2023-04-22T10:16:26.528Z,8.33
2023-04-22T10:19:28.599Z,7.72
2023-04-22T10:22:31.373Z,8.50
2023-04-22T10:25:33.777Z,10.10
2023-04-22T10:28:36.297Z,7.40
2023-04-22T10:31:39.000Z,6.63
2023-04-22T10:34:41.370Z,7.38
2023-04-22T10:37:43.601Z,8.10
2023-04-22T10:41:05.956Z,8.05
2023-04-22T10:44:08.488Z,5.87
2023-04-22T10:47:10.986Z,7.43
2023-04-22T10:50:24.038Z,9.15
2023-04-22T10:53:35.622Z,6.65
2023-04-22T10:56:58.290Z,6.88
2023-04-22T11:00:01.020Z,6.73
2023-04-22T11:03:05.721Z,6.90
2023-04-22T11:06:18.320Z,6.93
2023-04-22T11:09:21.505Z,6.78
2023-04-22T11:12:35.519Z,6.00
2023-04-22T11:15:38.093Z,6.10
2023-04-22T11:18:40.106Z,7.70
2023-04-22T11:21:42.300Z,6.80
2023-04-22T11:24:53.578Z,7.97
2023-04-22T11:27:55.729Z,8.73
2023-04-22T11:31:16.084Z,7.30
2023-04-22T11:34:18.412Z,6.93
2023-04-22T11:37:20.434Z,6.15
2023-04-22T11:40:30.658Z,7.40
2023-04-22T11:43:34.159Z,8.45
2023-04-22T11:46:39.583Z,6.23
2023-04-22T11:49:41.584Z,8.43
2023-04-22T11:52:50.348Z,5.85
2023-04-22T11:55:52.880Z,7.75
2023-04-22T11:58:54.856Z,6.32
2023-04-22T12:01:56.819Z,5.80
2023-04-22T12:04:59.699Z,6.93
2023-04-22T12:08:03.578Z,5.68
2023-04-22T12:11:06.239Z,7.15
2023-04-22T12:14:08.483Z,16.35
2023-04-22T12:17:12.239Z,5.77
2023-04-22T12:20:14.665Z,6.30
2023-04-22T12:23:17.085Z,9.25
2023-04-22T12:26:20.194Z,6.90
2023-04-22T12:29:30.298Z,7.45
2023-04-22T12:32:32.362Z,6.20
2023-04-22T12:35:34.845Z,5.57
2023-04-22T12:38:36.992Z,5.68
2023-04-22T12:41:38.994Z,5.38
2023-04-22T12:44:41.468Z,5.78
2023-04-22T12:47:45.229Z,10.60
2023-04-22T12:50:47.329Z,7.97
2023-04-22T12:53:49.425Z,6.43
2023-04-22T12:56:52.217Z,8.65
2023-04-22T12:59:54.786Z,7.18
2023-04-22T13:02:57.409Z,7.47
2023-04-22T13:06:00.249Z,8.47
2023-04-22T13:09:02.344Z,5.85
2023-04-22T13:12:04.797Z,5.78
2023-04-22T13:15:13.488Z,5.65
2023-04-22T13:18:16.542Z,5.73
2023-04-22T13:21:18.573Z,7.40
2023-04-22T13:24:20.877Z,5.72
2023-04-22T13:27:22.942Z,6.70
2023-04-22T13:30:25.326Z,6.72
2023-04-22T13:33:27.661Z,5.60
2023-04-22T13:36:29.681Z,7.87
2023-04-22T13:39:32.151Z,7.90
2023-04-22T13:42:34.433Z,8.32
2023-04-22T13:45:36.948Z,7.43
2023-04-22T13:48:39.036Z,10.57
2023-04-22T13:51:41.792Z,5.77
2023-04-22T13:54:43.667Z,6.90
2023-04-22T13:57:45.673Z,8.23
2023-04-22T14:00:47.935Z,8.25
2023-04-22T14:03:50.699Z,7.03
2023-04-22T14:06:53.227Z,8.20
2023-04-22T14:09:55.330Z,7.70
2023-04-22T14:12:57.738Z,8.60
2023-04-22T14:15:59.840Z,5.72
2023-04-22T14:19:02.795Z,6.57
2023-04-22T14:22:04.798Z,6.20
2023-04-22T14:25:07.215Z,7.40
2023-04-22T14:28:09.578Z,7.38
2023-04-22T14:31:12.181Z,7.68
2023-04-22T14:34:14.201Z,6.33
2023-04-22T14:37:16.222Z,7.60
2023-04-22T14:40:20.021Z,10.07
2023-04-22T14:43:22.531Z,11.07
2023-04-22T14:46:24.593Z,6.45
2023-04-22T14:49:27.038Z,8.00
2023-04-22T14:52:29.140Z,6.77
2023-04-22T14:55:31.584Z,9.02
2023-04-22T14:58:33.596Z,7.95
2023-04-22T15:01:36.045Z,8.35
2023-04-22T15:04:38.257Z,6.13
2023-04-22T15:07:40.631Z,8.93
2023-04-22T15:10:42.802Z,7.18
2023-04-22T15:13:45.487Z,7.68
2023-04-22T15:16:47.505Z,7.93
2023-04-22T15:19:50.238Z,6.60
2023-04-22T15:22:52.426Z,7.57
2023-04-22T15:25:54.751Z,8.32
2023-04-22T15:28:56.737Z,11.07
2023-04-22T15:31:59.179Z,8.38
2023-04-22T15:35:01.371Z,7.43
2023-04-22T15:38:03.285Z,7.03
2023-04-22T15:41:05.662Z,7.88
2023-04-22T15:44:08.772Z,5.93
2023-04-22T15:47:11.917Z,7.30
2023-04-22T15:50:15.214Z,8.47
2023-04-22T15:53:17.216Z,7.43
2023-04-22T15:56:19.670Z,7.85
2023-04-22T15:59:21.790Z,7.50
2023-04-22T16:02:23.961Z,6.90
2023-04-22T16:05:26.296Z,11.37
2023-04-22T16:08:28.261Z,9.43
2023-04-22T16:11:30.820Z,6.68
2023-04-22T16:14:32.805Z,8.20
2023-04-22T16:17:34.798Z,5.70
2023-04-22T16:20:37.156Z,6.83
2023-04-22T16:23:39.142Z,8.07
2023-04-22T16:26:41.645Z,7.88
2023-04-22T16:29:43.830Z,6.43
2023-04-22T16:32:46.212Z,7.30
2023-04-22T16:35:48.271Z,8.17
2023-04-22T16:38:50.764Z,6.13
2023-04-22T16:41:53.403Z,7.90
2023-04-22T16:44:55.379Z,10.93
2023-04-22T16:47:57.834Z,12.32
2023-04-22T16:51:00.093Z,10.83
2023-04-22T16:54:02.135Z,11.83
2023-04-22T16:57:04.980Z,10.15
2023-04-22T17:00:07.310Z,10.07
2023-04-22T17:03:11.922Z,10.52
2023-04-22T17:06:14.527Z,7.07
2023-04-22T17:09:16.432Z,9.70
2023-04-22T17:12:18.738Z,10.45
2023-04-22T17:15:27.462Z,9.13
2023-04-22T17:18:35.776Z,7.88
2023-04-22T17:21:44.435Z,6.60
2023-04-22T17:24:53.186Z,8.60
2023-04-22T17:27:55.559Z,9.80
2023-04-22T17:30:58.135Z,8.30
2023-04-22T17:34:00.138Z,8.15
2023-04-22T17:37:02.546Z,7.97
2023-04-22T17:40:04.939Z,8.30
2023-04-22T17:43:07.282Z,9.10
2023-04-22T17:46:09.600Z,10.88
2023-04-22T17:49:11.864Z,8.73
2023-04-22T17:52:14.402Z,10.93
2023-04-22T17:55:16.490Z,9.47
2023-04-22T17:58:19.157Z,9.38
2023-04-22T18:01:21.272Z,9.65
2023-04-22T18:04:23.380Z,11.65
2023-04-22T18:07:25.594Z,15.53
2023-04-22T18:10:27.682Z,18.37
2023-04-22T18:13:30.107Z,23.45
2023-04-22T18:16:32.467Z,22.75
2023-04-22T18:19:35.033Z,22.23
2023-04-22T18:22:37.022Z,17.60
2023-04-22T18:25:39.435Z,18.20
2023-04-22T18:28:43.503Z,17.83
2023-04-22T18:31:45.727Z,16.52
2023-04-22T18:34:47.761Z,14.25
2023-04-22T18:37:50.365Z,16.20
2023-04-22T18:40:52.312Z,17.87
2023-04-22T18:43:54.529Z,20.10
2023-04-22T18:46:56.926Z,18.45
2023-04-22T18:49:59.628Z,19.50
2023-04-22T18:53:01.652Z,22.30
2023-04-22T18:56:03.703Z,23.73
2023-04-22T18:59:05.742Z,23.17
2023-04-22T19:02:09.116Z,19.77
2023-04-22T19:05:13.564Z,22.15
2023-04-22T19:08:15.615Z,22.37
2023-04-22T19:11:17.598Z,22.97
2023-04-22T19:14:20.070Z,45.45
2023-04-22T19:17:22.141Z,29.90
2023-04-22T19:20:24.164Z,26.58
2023-04-22T19:23:26.609Z,26.53
2023-04-22T19:26:29.095Z,22.83
2023-04-22T19:29:31.488Z,22.75
2023-04-22T19:32:34.139Z,24.08
2023-04-22T19:35:36.280Z,27.40
2023-04-22T19:38:38.386Z,23.23
2023-04-22T19:41:40.475Z,23.37
2023-04-22T19:44:42.980Z,21.02
2023-04-22T19:47:45.712Z,24.20
2023-04-22T19:50:48.155Z,24.42
2023-04-22T19:53:51.078Z,23.93
2023-04-22T19:56:53.197Z,25.80
2023-04-22T19:59:55.353Z,21.35
2023-04-22T20:02:57.819Z,21.95
2023-04-22T20:06:00.391Z,20.30
2023-04-22T20:09:05.328Z,32.57
2023-04-22T20:12:07.465Z,26.93
2023-04-22T20:15:10.673Z,29.13
2023-04-22T20:18:12.946Z,29.35
2023-04-22T20:21:15.052Z,27.05
2023-04-22T20:24:20.534Z,21.57
2023-04-22T20:27:24.428Z,25.73
2023-04-22T20:30:27.665Z,21.80
2023-04-22T20:33:29.752Z,23.13
2023-04-22T20:36:32.848Z,18.60
2023-04-22T20:39:34.865Z,23.67
2023-04-22T20:42:37.090Z,20.17
2023-04-22T20:45:39.352Z,21.23
2023-04-22T20:48:41.430Z,20.80
2023-04-22T20:51:43.529Z,18.50
2023-04-22T20:54:46.156Z,18.90
2023-04-22T20:57:48.715Z,18.47
2023-04-22T21:00:50.644Z,19.38
2023-04-22T21:03:53.078Z,21.35
2023-04-22T21:06:56.059Z,17.10
2023-04-22T21:09:59.472Z,20.67
2023-04-22T21:13:01.565Z,17.40
2023-04-22T21:16:04.359Z,18.30
2023-04-22T21:19:06.929Z,24.00
2023-04-22T21:22:09.001Z,18.65
2023-04-22T21:25:11.535Z,17.13
2023-04-22T21:28:13.673Z,17.70
2023-04-22T21:31:15.945Z,16.17
2023-04-22T21:34:18.216Z,17.98
2023-04-22T21:37:20.657Z,15.57
2023-04-22T21:40:23.143Z,14.37
2023-04-22T21:43:25.332Z,14.87
2023-04-22T21:46:27.754Z,15.48
2023-04-22T21:49:29.942Z,15.85
2023-04-22T21:52:32.426Z,14.18
2023-04-22T21:55:34.390Z,15.30
2023-04-22T21:58:36.373Z,16.07
2023-04-22T22:01:38.454Z,12.77
2023-04-22T22:04:40.929Z,17.05
2023-04-22T22:07:43.186Z,12.45
2023-04-22T22:10:45.712Z,11.30
2023-04-22T22:13:49.354Z,12.57
2023-04-22T22:16:53.818Z,13.10
2023-04-22T22:19:59.171Z,13.07
2023-04-22T22:23:01.093Z,11.93
2023-04-22T22:26:03.070Z,13.60
2023-04-22T22:29:05.025Z,13.55
2023-04-22T22:32:07.854Z,10.45
2023-04-22T22:35:10.133Z,13.13
2023-04-22T22:38:12.206Z,12.48
2023-04-22T22:41:14.509Z,15.20
2023-04-22T22:44:16.695Z,12.87
2023-04-22T22:47:19.156Z,16.80
2023-04-22T22:50:21.456Z,11.50
2023-04-22T22:53:23.596Z,14.65
2023-04-22T22:56:25.984Z,13.68
2023-04-22T22:59:28.362Z,14.20
2023-04-22T23:02:31.330Z,12.13
2023-04-22T23:05:33.425Z,11.63
2023-04-22T23:08:35.425Z,13.67
2023-04-22T23:11:37.454Z,14.40
2023-04-22T23:14:40.699Z,14.68
2023-04-22T23:17:43.392Z,14.45
2023-04-22T23:20:45.561Z,15.03
2023-04-22T23:23:47.539Z,14.33
2023-04-22T23:26:50.318Z,14.43
2023-04-22T23:29:52.516Z,13.32
2023-04-22T23:32:56.888Z,11.07
2023-04-22T23:35:59.393Z,17.15
2023-04-22T23:39:01.481Z,13.50
2023-04-22T23:42:03.516Z,12.45
2023-04-22T23:45:05.687Z,12.40
2023-04-22T23:48:08.810Z,15.15
2023-04-22T23:51:16.096Z,12.77
2023-04-22T23:54:18.312Z,13.35
2023-04-22T23:57:20.378Z,12.57
